createdAt,value
2023-04-03T00:00:53.833Z,6.90
2023-04-03T00:01:53.888Z,6.60
2023-04-03T00:02:53.958Z,7.10
2023-04-03T00:03:53.825Z,7.00
2023-04-03T00:04:53.809Z,7.00
2023-04-03T00:05:53.786Z,7.30
2023-04-03T00:06:53.789Z,7.40
2023-04-03T00:07:53.845Z,7.40
2023-04-03T00:08:53.783Z,7.70
2023-04-03T00:09:53.762Z,7.20
2023-04-03T00:10:53.750Z,7.80
2023-04-03T00:11:53.745Z,7.70
2023-04-03T00:12:53.769Z,7.60
2023-04-03T00:13:53.932Z,7.60
2023-04-03T00:14:53.726Z,7.60
2023-04-03T00:15:53.719Z,7.60
2023-04-03T00:16:53.736Z,7.60
2023-04-03T00:17:53.745Z,7.10
2023-04-03T00:18:53.697Z,7.40
2023-04-03T00:19:53.694Z,7.10
2023-04-03T00:20:53.698Z,7.60
2023-04-03T00:21:53.676Z,7.40
2023-04-03T00:22:53.669Z,7.80
2023-04-03T00:23:53.670Z,7.80
2023-04-03T00:24:53.652Z,7.40
2023-04-03T00:25:53.661Z,7.10
2023-04-03T00:26:53.639Z,7.70
2023-04-03T00:27:53.630Z,7.80
2023-04-03T00:28:53.626Z,7.50
2023-04-03T00:29:53.619Z,7.20
2023-04-03T00:30:53.639Z,7.60
2023-04-03T00:31:53.604Z,7.40
2023-04-03T00:32:53.776Z,7.20
2023-04-03T00:33:53.597Z,7.70
2023-04-03T00:34:53.584Z,7.80
2023-04-03T00:35:53.652Z,6.50
2023-04-03T00:36:53.707Z,6.40
2023-04-03T00:37:53.566Z,6.80
2023-04-03T00:38:53.554Z,7.20
2023-04-03T00:39:53.548Z,6.50
2023-04-03T00:40:53.546Z,7.10
2023-04-03T00:41:53.534Z,7.10
2023-04-03T00:42:53.526Z,7.60
2023-04-03T00:43:53.542Z,7.10
2023-04-03T00:44:53.517Z,6.60
2023-04-03T00:45:53.568Z,7.10
2023-04-03T00:46:53.503Z,7.10
2023-04-03T00:47:53.532Z,7.00
2023-04-03T00:48:53.480Z,7.70
2023-04-03T00:49:53.482Z,7.90
2023-04-03T00:50:53.468Z,7.30
2023-04-03T00:51:53.468Z,8.20
2023-04-03T00:52:53.474Z,7.70
2023-04-03T00:53:53.449Z,7.30
2023-04-03T00:54:53.449Z,7.80
2023-04-03T00:55:53.441Z,7.40
2023-04-03T00:56:53.485Z,7.20
2023-04-03T00:57:53.437Z,7.40
2023-04-03T00:58:53.422Z,7.80
2023-04-03T00:59:53.409Z,7.80
2023-04-03T01:00:53.401Z,7.70
2023-04-03T01:01:53.427Z,8.00
2023-04-03T01:02:53.424Z,8.30
2023-04-03T01:03:53.419Z,8.10
2023-04-03T01:04:53.373Z,7.50
2023-04-03T01:05:53.370Z,8.30
2023-04-03T01:06:53.361Z,8.00
2023-04-03T01:07:53.451Z,7.80
2023-04-03T01:08:53.369Z,8.30
2023-04-03T01:09:53.353Z,7.60
2023-04-03T01:10:53.336Z,7.80
2023-04-03T01:11:53.334Z,8.00
2023-04-03T01:12:53.319Z,8.30
2023-04-03T01:13:53.720Z,8.50
2023-04-03T01:14:53.313Z,8.60
2023-04-03T01:15:53.319Z,8.70
2023-04-03T01:16:53.290Z,8.60
2023-04-03T01:17:53.349Z,9.00
2023-04-03T01:18:53.275Z,8.70
2023-04-03T01:19:53.270Z,8.70
2023-04-03T01:20:53.262Z,8.60
2023-04-03T01:21:53.255Z,9.10
2023-04-03T01:22:53.253Z,8.80
2023-04-03T01:23:53.240Z,8.40
2023-04-03T01:24:53.255Z,8.50
2023-04-03T01:25:53.235Z,9.30
2023-04-03T01:26:53.221Z,9.20
2023-04-03T01:27:53.214Z,9.20
2023-04-03T01:28:53.213Z,9.20
2023-04-03T01:29:53.205Z,9.10
2023-04-03T01:30:53.196Z,9.20
2023-04-03T01:31:53.249Z,8.90
2023-04-03T01:32:53.252Z,9.30
2023-04-03T01:33:53.185Z,9.10
2023-04-03T01:34:53.167Z,9.40
2023-04-03T01:35:53.202Z,9.00
2023-04-03T01:36:53.164Z,8.90
2023-04-03T01:37:53.144Z,8.20
2023-04-03T01:38:53.139Z,9.70
2023-04-03T01:39:53.130Z,9.30
2023-04-03T01:40:53.142Z,9.40
2023-04-03T01:41:53.114Z,10.00
2023-04-03T01:42:53.110Z,9.50
2023-04-03T01:43:53.106Z,8.80
2023-04-03T01:44:53.096Z,9.50
2023-04-03T01:45:53.130Z,9.60
2023-04-03T01:46:53.082Z,9.80
2023-04-03T01:47:53.154Z,9.10
2023-04-03T01:48:53.069Z,9.00
2023-04-03T01:49:53.059Z,9.10
2023-04-03T01:50:53.056Z,9.00
2023-04-03T01:51:53.050Z,9.40
2023-04-03T01:52:53.038Z,9.20
2023-04-03T01:53:53.031Z,8.90
2023-04-03T01:54:53.025Z,9.50
2023-04-03T01:55:53.014Z,8.70
2023-04-03T01:56:53.060Z,9.10
2023-04-03T01:57:53.001Z,9.20
2023-04-03T01:58:53.000Z,8.90
2023-04-03T01:59:52.994Z,8.70
2023-04-03T02:00:52.999Z,8.90
2023-04-03T02:01:52.987Z,8.70
2023-04-03T02:02:53.020Z,8.70
2023-04-03T02:03:52.976Z,8.80
2023-04-03T02:04:52.956Z,8.40
2023-04-03T02:05:52.955Z,8.60
2023-04-03T02:06:52.942Z,8.30
2023-04-03T02:07:52.933Z,8.10
2023-04-03T02:08:52.927Z,8.60
2023-04-03T02:09:52.919Z,8.10
2023-04-03T02:10:52.976Z,7.90
2023-04-03T02:11:52.904Z,7.30
2023-04-03T02:12:52.918Z,7.50
2023-04-03T02:13:52.900Z,7.70
2023-04-03T02:14:52.882Z,7.70
2023-04-03T02:15:52.887Z,7.40
2023-04-03T02:16:52.921Z,7.60
2023-04-03T02:17:52.913Z,7.40
2023-04-03T02:18:52.865Z,7.70
2023-04-03T02:19:52.845Z,7.70
2023-04-03T02:20:52.842Z,8.10
2023-04-03T02:21:52.834Z,7.80
2023-04-03T02:22:52.826Z,7.70
2023-04-03T02:23:52.830Z,7.90
2023-04-03T02:24:52.828Z,8.10
2023-04-03T02:25:52.811Z,7.90
2023-04-03T02:26:52.817Z,8.00
2023-04-03T02:27:52.791Z,8.00
2023-04-03T02:28:52.822Z,7.70
2023-04-03T02:29:52.777Z,7.70
2023-04-03T02:30:52.807Z,7.20
2023-04-03T02:31:52.764Z,7.40
2023-04-03T02:32:52.890Z,7.10
2023-04-03T02:33:52.749Z,6.80
2023-04-03T02:34:52.746Z,6.50
2023-04-03T02:35:52.777Z,6.80
2023-04-03T02:36:52.739Z,7.20
2023-04-03T02:37:52.731Z,6.90
2023-04-03T02:38:52.720Z,7.00
2023-04-03T02:39:52.728Z,6.90
2023-04-03T02:40:52.713Z,6.90
2023-04-03T02:41:52.703Z,7.40
2023-04-03T02:42:52.698Z,7.30
2023-04-03T02:43:52.697Z,7.40
2023-04-03T02:44:52.701Z,7.20
2023-04-03T02:45:52.698Z,7.20
2023-04-03T02:46:52.670Z,6.70
2023-04-03T02:47:52.724Z,6.40
2023-04-03T02:48:52.649Z,6.80
2023-04-03T02:49:52.644Z,6.60
2023-04-03T02:50:52.636Z,6.60
2023-04-03T02:51:52.631Z,6.00
2023-04-03T02:52:52.626Z,6.20
2023-04-03T02:53:52.613Z,6.10
2023-04-03T02:54:52.620Z,5.90
2023-04-03T02:55:52.619Z,5.80
2023-04-03T02:56:52.631Z,6.40
2023-04-03T02:57:52.602Z,6.20
2023-04-03T02:58:52.603Z,6.10
2023-04-03T02:59:52.576Z,6.40
2023-04-03T03:00:52.585Z,6.50
2023-04-03T03:01:52.637Z,6.20
2023-04-03T03:02:52.569Z,6.70
2023-04-03T03:03:52.561Z,6.30
2023-04-03T03:04:52.578Z,6.20
2023-04-03T03:05:52.542Z,6.00
2023-04-03T03:06:52.531Z,6.20
2023-04-03T03:07:52.521Z,5.80
2023-04-03T03:08:52.516Z,5.90
2023-04-03T03:09:52.525Z,5.90
2023-04-03T03:10:52.506Z,6.30
2023-04-03T03:11:52.496Z,6.00
2023-04-03T03:12:52.486Z,6.40
2023-04-03T03:13:52.477Z,6.00
2023-04-03T03:14:52.822Z,5.80
2023-04-03T03:15:52.526Z,5.80
2023-04-03T03:16:52.479Z,6.10
2023-04-03T03:17:52.493Z,5.90
2023-04-03T03:18:52.446Z,5.70
2023-04-03T03:19:52.438Z,5.60
2023-04-03T03:20:52.430Z,5.70
2023-04-03T03:21:52.421Z,5.70
2023-04-03T03:22:52.437Z,5.20
2023-04-03T03:23:52.410Z,5.70
2023-04-03T03:24:52.402Z,6.30
2023-04-03T03:25:52.394Z,5.30
2023-04-03T03:26:52.389Z,5.70
2023-04-03T03:27:52.380Z,5.70
2023-04-03T03:28:52.374Z,5.20
2023-04-03T03:29:52.367Z,5.60
2023-04-03T03:30:52.364Z,5.30
2023-04-03T03:31:52.412Z,5.50
2023-04-03T03:32:52.532Z,5.60
2023-04-03T03:33:52.349Z,5.30
2023-04-03T03:34:52.338Z,5.40
2023-04-03T03:35:52.378Z,5.40
2023-04-03T03:36:52.324Z,5.30
2023-04-03T03:37:52.313Z,5.20
2023-04-03T03:38:52.312Z,5.70
2023-04-03T03:39:52.302Z,5.30
2023-04-03T03:40:52.314Z,5.20
2023-04-03T03:41:52.280Z,5.50
2023-04-03T03:42:52.278Z,5.10
2023-04-03T03:43:52.266Z,5.60
2023-04-03T03:44:52.262Z,5.60
2023-04-03T03:45:52.259Z,5.70
2023-04-03T03:46:52.278Z,5.50
2023-04-03T03:47:52.257Z,5.60
2023-04-03T03:48:52.254Z,5.50
2023-04-03T03:49:52.225Z,5.30
2023-04-03T03:50:52.257Z,5.10
2023-04-03T03:51:52.210Z,5.10
2023-04-03T03:52:52.204Z,5.10
2023-04-03T03:53:52.195Z,5.30
2023-04-03T03:54:52.191Z,5.30
2023-04-03T03:55:52.182Z,5.20
2023-04-03T03:56:52.200Z,5.00
2023-04-03T03:57:52.169Z,5.30
2023-04-03T03:58:52.165Z,5.10
2023-04-03T03:59:52.169Z,5.30
2023-04-03T04:00:52.153Z,4.90
2023-04-03T04:01:52.221Z,4.90
2023-04-03T04:02:52.219Z,4.90
2023-04-03T04:03:52.208Z,5.30
2023-04-03T04:04:52.144Z,5.00
2023-04-03T04:05:52.115Z,5.10
2023-04-03T04:06:52.112Z,5.10
2023-04-03T04:07:52.101Z,5.00
2023-04-03T04:08:52.097Z,5.20
2023-04-03T04:09:52.098Z,5.40
2023-04-03T04:10:52.084Z,5.00
2023-04-03T04:11:52.072Z,5.40
2023-04-03T04:12:52.068Z,5.60
2023-04-03T04:13:52.064Z,5.40
2023-04-03T04:14:52.059Z,5.40
2023-04-03T04:15:52.051Z,4.90
2023-04-03T04:16:52.050Z,4.90
2023-04-03T04:17:52.089Z,5.20
2023-04-03T04:18:52.027Z,5.30
2023-04-03T04:19:52.214Z,5.40
2023-04-03T04:20:52.030Z,5.00
2023-04-03T04:21:51.999Z,5.20
2023-04-03T04:22:51.996Z,5.40
2023-04-03T04:23:51.994Z,4.60
2023-04-03T04:24:51.993Z,4.80
2023-04-03T04:25:51.984Z,4.90
2023-04-03T04:26:51.969Z,4.80
2023-04-03T04:27:52.019Z,4.50
2023-04-03T04:28:51.956Z,5.10
2023-04-03T04:29:51.944Z,5.20
2023-04-03T04:30:52.018Z,4.60
2023-04-03T04:31:51.939Z,4.70
2023-04-03T04:32:51.957Z,4.70
2023-04-03T04:33:51.918Z,4.70
2023-04-03T04:34:51.919Z,4.40
2023-04-03T04:35:51.955Z,4.30
2023-04-03T04:36:52.068Z,4.70
2023-04-03T04:37:51.888Z,4.40
2023-04-03T04:38:51.880Z,4.60
2023-04-03T04:39:51.873Z,4.60
2023-04-03T04:40:51.866Z,4.70
2023-04-03T04:41:51.853Z,4.90
2023-04-03T04:42:51.849Z,5.00
2023-04-03T04:43:51.840Z,4.20
2023-04-03T04:44:51.832Z,4.40
2023-04-03T04:45:51.865Z,4.30
2023-04-03T04:46:51.818Z,4.60
2023-04-03T04:47:51.871Z,4.40
2023-04-03T04:48:51.802Z,4.50
2023-04-03T04:49:51.806Z,4.50
2023-04-03T04:50:51.793Z,4.60
2023-04-03T04:51:52.523Z,4.40
2023-04-03T04:52:51.796Z,4.60
2023-04-03T04:53:52.748Z,4.60
2023-04-03T04:54:51.768Z,4.70
2023-04-03T04:55:51.760Z,4.60
2023-04-03T04:56:51.766Z,4.40
2023-04-03T04:57:51.770Z,4.30
2023-04-03T04:58:51.735Z,4.70
2023-04-03T04:59:51.728Z,4.40
2023-04-03T05:00:51.721Z,4.60
2023-04-03T05:01:51.748Z,4.30
2023-04-03T05:02:51.730Z,4.30
2023-04-03T05:03:51.706Z,4.30
2023-04-03T05:04:51.749Z,4.10
2023-04-03T05:05:51.680Z,4.40
2023-04-03T05:06:51.718Z,4.40
2023-04-03T05:07:51.666Z,4.60
2023-04-03T05:08:51.700Z,3.90
2023-04-03T05:09:51.656Z,4.60
2023-04-03T05:10:52.342Z,4.10
2023-04-03T05:11:51.640Z,4.00
2023-04-03T05:12:51.643Z,4.40
2023-04-03T05:13:51.627Z,4.30
2023-04-03T05:14:51.634Z,4.40
2023-04-03T05:15:51.713Z,4.30
2023-04-03T05:16:52.779Z,4.20
2023-04-03T05:17:51.643Z,4.10
2023-04-03T05:18:51.588Z,4.00
2023-04-03T05:19:51.582Z,4.10
2023-04-03T05:20:51.590Z,3.90
2023-04-03T05:21:51.567Z,4.00
2023-04-03T05:22:51.561Z,4.10
2023-04-03T05:23:51.551Z,4.20
2023-04-03T05:24:51.575Z,4.20
2023-04-03T05:25:51.547Z,4.00
2023-04-03T05:26:51.529Z,4.30
2023-04-03T05:27:51.552Z,3.80
2023-04-03T05:28:51.516Z,4.00
2023-04-03T05:29:51.507Z,4.00
2023-04-03T05:30:51.544Z,3.90
2023-04-03T05:31:51.595Z,3.60
2023-04-03T05:32:51.508Z,4.10
2023-04-03T05:33:51.480Z,3.90
2023-04-03T05:34:51.472Z,4.10
2023-04-03T05:35:51.519Z,3.90
2023-04-03T05:36:51.469Z,4.10
2023-04-03T05:37:51.446Z,3.90
2023-04-03T05:38:51.441Z,3.80
2023-04-03T05:39:51.432Z,4.30
2023-04-03T05:40:51.440Z,3.80
2023-04-03T05:41:51.416Z,3.70
2023-04-03T05:42:51.416Z,3.60
2023-04-03T05:43:51.402Z,4.40
2023-04-03T05:44:51.394Z,3.70
2023-04-03T05:45:51.462Z,3.80
2023-04-03T05:46:51.383Z,3.80
2023-04-03T05:47:51.383Z,3.70
2023-04-03T05:48:51.364Z,3.80
2023-04-03T05:49:51.359Z,3.90
2023-04-03T05:50:51.355Z,3.90
2023-04-03T05:51:51.340Z,3.90
2023-04-03T05:52:51.335Z,3.60
2023-04-03T05:53:51.333Z,3.90
2023-04-03T05:54:51.320Z,3.70
2023-04-03T05:55:51.310Z,3.70
2023-04-03T05:56:51.349Z,3.80
2023-04-03T05:57:51.299Z,3.90
2023-04-03T05:58:51.292Z,3.90
2023-04-03T05:59:51.282Z,3.80
2023-04-03T06:00:51.284Z,3.70
2023-04-03T06:01:51.272Z,4.00
2023-04-03T06:02:51.338Z,3.90
2023-04-03T06:03:51.427Z,4.10
2023-04-03T06:04:51.300Z,3.80
2023-04-03T06:05:51.244Z,3.90
2023-04-03T06:06:51.232Z,3.60
2023-04-03T06:07:51.225Z,3.70
2023-04-03T06:08:51.222Z,3.80
2023-04-03T06:09:51.213Z,3.60
2023-04-03T06:10:51.206Z,3.90
2023-04-03T06:11:51.215Z,4.00
2023-04-03T06:12:51.227Z,3.90
2023-04-03T06:13:51.185Z,3.60
2023-04-03T06:14:51.185Z,4.00
2023-04-03T06:15:51.188Z,3.90
2023-04-03T06:16:51.200Z,3.90
2023-04-03T06:17:51.191Z,3.70
2023-04-03T06:18:51.143Z,3.90
2023-04-03T06:19:51.137Z,3.60
2023-04-03T06:20:51.131Z,4.10
2023-04-03T06:21:51.124Z,3.60
2023-04-03T06:22:51.116Z,3.70
2023-04-03T06:23:51.108Z,3.60
2023-04-03T06:24:51.105Z,4.00
2023-04-03T06:25:51.096Z,4.00
2023-04-03T06:26:51.086Z,4.00
2023-04-03T06:27:51.080Z,3.80
2023-04-03T06:28:51.089Z,4.00
2023-04-03T06:29:51.467Z,4.00
2023-04-03T06:30:51.096Z,3.90
2023-04-03T06:31:51.068Z,3.80
2023-04-03T06:32:51.058Z,3.80
2023-04-03T06:33:51.045Z,3.80
2023-04-03T06:34:51.029Z,3.80
2023-04-03T06:35:51.048Z,3.80
2023-04-03T06:36:51.011Z,4.00
2023-04-03T06:37:51.009Z,3.90
2023-04-03T06:38:51.003Z,3.80
2023-04-03T06:39:51.318Z,3.50
2023-04-03T06:40:50.982Z,4.00
2023-04-03T06:41:50.985Z,3.80
2023-04-03T06:42:50.977Z,4.10
2023-04-03T06:43:50.964Z,4.00
2023-04-03T06:44:50.971Z,3.70
2023-04-03T06:45:50.951Z,3.80
2023-04-03T06:46:50.940Z,3.40
2023-04-03T06:47:50.970Z,3.90
2023-04-03T06:48:50.938Z,3.80
2023-04-03T06:49:50.923Z,3.70
2023-04-03T06:50:50.924Z,3.50
2023-04-03T06:51:50.917Z,4.00
2023-04-03T06:52:50.942Z,3.60
2023-04-03T06:53:50.908Z,3.40
2023-04-03T06:54:50.885Z,3.50
2023-04-03T06:55:50.884Z,3.30
2023-04-03T06:56:50.885Z,4.10
2023-04-03T06:57:50.866Z,3.70
2023-04-03T06:58:50.859Z,3.60
2023-04-03T06:59:50.875Z,3.60
2023-04-03T07:00:51.043Z,3.90
2023-04-03T07:01:50.906Z,4.00
2023-04-03T07:02:50.856Z,3.50
2023-04-03T07:03:50.820Z,3.80
2023-04-03T07:04:50.842Z,3.70
2023-04-03T07:05:50.809Z,3.50
2023-04-03T07:06:50.922Z,3.70
2023-04-03T07:07:50.803Z,3.40
2023-04-03T07:08:50.785Z,3.80
2023-04-03T07:09:50.786Z,3.70
2023-04-03T07:10:50.776Z,3.80
2023-04-03T07:11:50.767Z,3.90
2023-04-03T07:12:50.766Z,3.70
2023-04-03T07:13:50.760Z,3.80
2023-04-03T07:14:50.746Z,3.70
2023-04-03T07:15:50.756Z,3.40
2023-04-03T07:16:50.785Z,3.60
2023-04-03T07:17:50.788Z,3.50
2023-04-03T07:18:50.721Z,3.50
2023-04-03T07:19:50.719Z,3.50
2023-04-03T07:20:50.944Z,3.70
2023-04-03T07:21:50.705Z,3.70
2023-04-03T07:22:50.691Z,3.50
2023-04-03T07:23:50.693Z,3.60
2023-04-03T07:24:50.678Z,3.30
2023-04-03T07:25:50.678Z,3.10
2023-04-03T07:26:50.665Z,3.30
2023-04-03T07:27:50.669Z,3.70
2023-04-03T07:28:50.666Z,3.60
2023-04-03T07:29:50.647Z,3.40
2023-04-03T07:30:50.641Z,3.40
2023-04-03T07:31:50.667Z,3.20
2023-04-03T07:32:50.677Z,3.20
2023-04-03T07:33:50.625Z,3.20
2023-04-03T07:34:50.774Z,3.20
2023-04-03T07:35:50.629Z,2.90
2023-04-03T07:36:50.606Z,3.20
2023-04-03T07:37:50.600Z,3.10
2023-04-03T07:38:50.592Z,3.30
2023-04-03T07:39:50.593Z,3.40
2023-04-03T07:40:50.588Z,3.10
2023-04-03T07:41:50.572Z,3.00
2023-04-03T07:42:50.566Z,3.40
2023-04-03T07:43:50.561Z,2.80
2023-04-03T07:44:50.554Z,3.10
2023-04-03T07:45:50.592Z,2.90
2023-04-03T07:46:50.541Z,3.00
2023-04-03T07:47:50.578Z,2.50
2023-04-03T07:48:50.664Z,2.50
2023-04-03T07:49:50.525Z,2.80
2023-04-03T07:50:50.520Z,2.90
2023-04-03T07:51:50.513Z,2.80
2023-04-03T07:52:50.511Z,3.30
2023-04-03T07:53:50.515Z,2.70
2023-04-03T07:54:50.501Z,2.60
2023-04-03T07:55:50.493Z,2.70
2023-04-03T07:56:50.509Z,2.50
2023-04-03T07:57:50.480Z,2.70
2023-04-03T07:58:50.474Z,2.50
2023-04-03T07:59:50.474Z,2.70
2023-04-03T08:00:50.469Z,2.10
2023-04-03T08:01:50.465Z,2.40
2023-04-03T08:02:50.483Z,2.60
2023-04-03T08:03:50.607Z,2.40
2023-04-03T08:04:50.562Z,2.30
2023-04-03T08:05:50.440Z,2.50
2023-04-03T08:06:50.440Z,2.50
2023-04-03T08:07:50.434Z,2.30
2023-04-03T08:08:50.432Z,2.20
2023-04-03T08:09:50.419Z,2.30
2023-04-03T08:10:50.416Z,2.10
2023-04-03T08:11:50.418Z,2.50
2023-04-03T08:12:50.411Z,2.40
2023-04-03T08:13:51.394Z,2.20
2023-04-03T08:14:50.399Z,2.30
2023-04-03T08:15:50.409Z,2.00
2023-04-03T08:16:50.469Z,2.10
2023-04-03T08:17:50.441Z,2.40
2023-04-03T08:18:50.380Z,2.20
2023-04-03T08:19:50.379Z,2.20
2023-04-03T08:20:50.394Z,2.20
2023-04-03T08:21:50.371Z,2.00
2023-04-03T08:22:50.366Z,2.20
2023-04-03T08:23:50.379Z,2.40
2023-04-03T08:24:58.422Z,2.10
2023-04-03T08:25:50.368Z,2.10
2023-04-03T08:26:50.355Z,2.00
2023-04-03T08:27:50.359Z,2.00
2023-04-03T08:28:50.350Z,2.00
2023-04-03T08:29:50.356Z,2.20
2023-04-03T08:30:50.385Z,2.00
2023-04-03T08:31:50.342Z,2.00
2023-04-03T08:32:50.354Z,2.00
2023-04-03T08:33:50.335Z,1.90
2023-04-03T08:34:50.532Z,2.20
2023-04-03T08:35:50.353Z,2.10
2023-04-03T08:36:50.350Z,2.00
2023-04-03T08:37:50.322Z,1.80
2023-04-03T08:38:50.323Z,1.70
2023-04-03T08:39:50.324Z,1.90
2023-04-03T08:40:50.311Z,1.90
2023-04-03T08:41:50.332Z,2.10
2023-04-03T08:42:50.320Z,1.80
2023-04-03T08:43:50.304Z,2.10
2023-04-03T08:44:50.301Z,2.00
2023-04-03T08:45:50.319Z,2.00
2023-04-03T08:46:50.297Z,1.80
2023-04-03T08:47:51.453Z,2.00
2023-04-03T08:48:50.282Z,1.80
2023-04-03T08:49:50.294Z,1.80
2023-04-03T08:50:50.282Z,1.80
2023-04-03T08:51:50.273Z,2.00
2023-04-03T08:52:50.385Z,1.80
2023-04-03T08:53:50.267Z,2.00
2023-04-03T08:54:50.258Z,2.00
2023-04-03T08:55:50.267Z,2.00
2023-04-03T08:56:50.281Z,2.10
2023-04-03T08:57:50.251Z,2.00
2023-04-03T08:58:50.343Z,2.00
2023-04-03T08:59:50.240Z,1.90
2023-04-03T09:00:50.241Z,2.00
2023-04-03T09:01:50.250Z,1.80
2023-04-03T09:02:50.239Z,2.00
2023-04-03T09:03:50.270Z,1.90
2023-04-03T09:04:50.217Z,2.00
2023-04-03T09:05:50.224Z,2.00
2023-04-03T09:06:50.218Z,2.00
2023-04-03T09:07:50.209Z,1.90
2023-04-03T09:08:50.315Z,1.90
2023-04-03T09:09:50.196Z,1.80
2023-04-03T09:10:50.185Z,1.70
2023-04-03T09:11:50.178Z,1.90
2023-04-03T09:12:50.200Z,1.70
2023-04-03T09:13:50.170Z,1.90
2023-04-03T09:14:50.166Z,2.10
2023-04-03T09:15:50.195Z,1.80
2023-04-03T09:16:50.153Z,2.00
2023-04-03T09:17:50.158Z,3.60
2023-04-03T09:18:50.148Z,2.20
2023-04-03T09:19:50.191Z,2.00
2023-04-03T09:20:50.136Z,2.20
2023-04-03T09:21:50.133Z,2.00
2023-04-03T09:22:52.639Z,2.00
2023-04-03T09:23:50.122Z,2.30
2023-04-03T09:24:50.220Z,2.20
2023-04-03T09:25:50.105Z,2.10
2023-04-03T09:26:50.098Z,2.50
2023-04-03T09:27:50.098Z,2.80
2023-04-03T09:28:51.159Z,2.10
2023-04-03T09:29:50.091Z,2.00
2023-04-03T09:30:50.076Z,2.00
2023-04-03T09:31:50.086Z,2.20
2023-04-03T09:32:50.166Z,2.00
2023-04-03T09:33:50.066Z,2.30
2023-04-03T09:34:50.070Z,2.00
2023-04-03T09:35:50.143Z,1.90
2023-04-03T09:36:50.064Z,2.00
2023-04-03T09:37:50.046Z,1.70
2023-04-03T09:38:50.036Z,2.20
2023-04-03T09:39:50.180Z,2.00
2023-04-03T09:40:50.209Z,2.00
2023-04-03T09:41:50.021Z,2.00
2023-04-03T09:42:59.025Z,2.20
2023-04-03T09:43:50.055Z,2.10
2023-04-03T09:44:50.002Z,2.00
2023-04-03T09:45:49.997Z,2.10
2023-04-03T09:46:50.004Z,2.00
2023-04-03T09:47:50.019Z,2.00
2023-04-03T09:48:52.290Z,1.80
2023-04-03T09:49:49.985Z,2.10
2023-04-03T09:50:49.976Z,1.80
2023-04-03T09:51:49.971Z,1.80
2023-04-03T09:52:49.958Z,2.30
2023-04-03T09:53:49.957Z,2.10
2023-04-03T09:54:49.945Z,1.80
2023-04-03T09:55:49.945Z,1.80
2023-04-03T09:56:50.082Z,1.80
2023-04-03T09:57:51.523Z,1.90
2023-04-03T09:58:51.127Z,2.00
2023-04-03T09:59:49.950Z,1.80
2023-04-03T10:00:49.928Z,2.20
2023-04-03T10:01:49.908Z,2.00
2023-04-03T10:02:49.963Z,2.60
2023-04-03T10:03:49.902Z,1.90
2023-04-03T10:04:58.738Z,2.00
2023-04-03T10:05:49.895Z,1.80
2023-04-03T10:06:49.900Z,2.10
2023-04-03T10:08:01.690Z,2.00
2023-04-03T10:08:49.868Z,2.40
2023-04-03T10:09:49.870Z,5.10
2023-04-03T10:10:49.857Z,5.80
2023-04-03T10:11:49.857Z,3.60
2023-04-03T10:12:49.992Z,2.10
2023-04-03T10:13:51.148Z,2.00
2023-04-03T10:14:49.838Z,2.10
2023-04-03T10:15:49.839Z,2.10
2023-04-03T10:16:49.854Z,1.70
2023-04-03T10:17:49.840Z,1.80
2023-04-03T10:18:49.817Z,1.70
2023-04-03T10:19:50.127Z,1.40
2023-04-03T10:20:49.814Z,1.50
2023-04-03T10:21:49.804Z,1.30
2023-04-03T10:22:49.812Z,1.40
2023-04-03T10:23:49.784Z,1.80
2023-04-03T10:24:49.781Z,1.80
2023-04-03T10:25:49.771Z,1.80
2023-04-03T10:26:49.768Z,1.80
2023-04-03T10:27:49.762Z,1.50
2023-04-03T10:28:49.885Z,1.40
2023-04-03T10:29:49.749Z,1.30
2023-04-03T10:30:49.763Z,1.20
2023-04-03T10:31:49.732Z,1.50
2023-04-03T10:32:49.939Z,1.50
2023-04-03T10:33:49.757Z,1.50
2023-04-03T10:34:58.572Z,1.50
2023-04-03T10:35:49.766Z,1.30
2023-04-03T10:36:49.711Z,1.30
2023-04-03T10:37:49.743Z,1.30
2023-04-03T10:38:49.698Z,1.20
2023-04-03T10:39:49.723Z,1.30
2023-04-03T10:40:49.690Z,1.20
2023-04-03T10:41:49.721Z,1.20
2023-04-03T10:42:49.702Z,1.40
2023-04-03T10:43:49.711Z,1.10
2023-04-03T10:44:49.779Z,1.30
2023-04-03T10:45:49.730Z,1.40
2023-04-03T10:46:49.680Z,1.20
2023-04-03T10:47:49.736Z,1.20
2023-04-03T10:48:49.730Z,1.20
2023-04-03T10:49:57.192Z,1.20
2023-04-03T10:50:49.669Z,1.10
2023-04-03T10:51:49.667Z,1.20
2023-04-03T10:52:49.657Z,1.10
2023-04-03T10:53:49.705Z,1.20
2023-04-03T10:54:49.659Z,1.30
2023-04-03T10:55:49.645Z,1.20
2023-04-03T10:56:53.293Z,1.00
2023-04-03T10:57:49.677Z,1.20
2023-04-03T10:58:49.679Z,1.20
2023-04-03T10:59:49.623Z,1.20
2023-04-03T11:00:49.719Z,1.20
2023-04-03T11:01:49.630Z,1.50
2023-04-03T11:02:49.700Z,1.30
2023-04-03T11:03:49.769Z,1.40
2023-04-03T11:04:49.557Z,1.20
2023-04-03T11:05:49.796Z,1.20
2023-04-03T11:06:49.590Z,1.20
2023-04-03T11:07:49.591Z,1.20
2023-04-03T11:09:49.625Z,1.20
2023-04-03T11:10:49.558Z,1.50
2023-04-03T11:11:49.573Z,1.20
2023-04-03T11:12:49.548Z,1.30
2023-04-03T11:13:49.537Z,1.20
2023-04-03T11:14:49.734Z,1.10
2023-04-03T11:15:49.545Z,0.90
2023-04-03T11:16:54.457Z,1.20
2023-04-03T11:17:49.530Z,1.00
2023-04-03T11:18:49.758Z,1.30
2023-04-03T11:19:49.505Z,1.00
2023-04-03T11:20:49.501Z,1.10
2023-04-03T11:21:49.501Z,1.10
2023-04-03T11:22:49.700Z,1.20
2023-04-03T11:23:50.346Z,1.40
2023-04-03T11:24:49.439Z,1.30
2023-04-03T11:25:49.473Z,1.10
2023-04-03T11:26:49.470Z,1.30
2023-04-03T11:27:49.457Z,1.10
2023-04-03T11:28:49.508Z,1.00
2023-04-03T11:29:49.445Z,0.90
2023-04-03T11:30:49.444Z,1.00
2023-04-03T11:31:49.437Z,1.30
2023-04-03T11:32:49.606Z,1.30
2023-04-03T11:33:49.426Z,1.20
2023-04-03T11:34:49.467Z,1.30
2023-04-03T11:35:49.435Z,1.20
2023-04-03T11:36:49.411Z,1.20
2023-04-03T11:37:49.400Z,1.10
2023-04-03T11:38:49.437Z,1.20
2023-04-03T11:39:49.592Z,1.10
2023-04-03T11:40:49.386Z,1.10
2023-04-03T11:41:50.510Z,1.10
2023-04-03T11:42:49.415Z,1.20
2023-04-03T11:43:49.571Z,1.00
2023-04-03T11:44:49.353Z,1.00
2023-04-03T11:45:49.358Z,1.00
2023-04-03T11:46:49.403Z,1.20
2023-04-03T11:47:49.475Z,1.10
2023-04-03T11:48:49.508Z,1.20
2023-04-03T11:49:49.331Z,1.30
2023-04-03T11:50:49.332Z,1.20
2023-04-03T11:51:49.324Z,1.00
2023-04-03T11:52:49.309Z,1.00
2023-04-03T11:53:49.271Z,1.00
2023-04-03T11:54:49.265Z,1.00
2023-04-03T11:55:49.259Z,1.10
2023-04-03T11:56:49.249Z,1.10
2023-04-03T11:57:49.247Z,1.10
2023-04-03T11:58:49.269Z,1.10
2023-04-03T11:59:49.239Z,1.20
2023-04-03T12:00:49.224Z,1.00
2023-04-03T12:01:49.285Z,1.10
2023-04-03T12:02:54.547Z,1.00
2023-04-03T12:03:49.392Z,0.90
2023-04-03T12:04:49.319Z,1.00
2023-04-03T12:05:49.198Z,1.10
2023-04-03T12:06:49.199Z,0.90
2023-04-03T12:07:49.188Z,1.10
2023-04-03T12:08:49.180Z,1.00
2023-04-03T12:09:49.173Z,1.20
2023-04-03T12:10:49.181Z,1.20
2023-04-03T12:11:49.167Z,1.10
2023-04-03T12:12:49.159Z,1.10
2023-04-03T12:13:49.152Z,1.00
2023-04-03T12:14:49.145Z,1.10
2023-04-03T12:15:49.142Z,1.00
2023-04-03T12:16:49.148Z,1.10
2023-04-03T12:17:49.174Z,1.00
2023-04-03T12:18:49.122Z,1.00
2023-04-03T12:19:49.121Z,1.10
2023-04-03T12:20:49.278Z,1.00
2023-04-03T12:21:49.107Z,1.10
2023-04-03T12:22:49.102Z,1.10
2023-04-03T12:23:49.095Z,1.30
2023-04-03T12:24:49.091Z,1.30
2023-04-03T12:25:49.085Z,1.30
2023-04-03T12:26:49.334Z,1.20
2023-04-03T12:27:49.077Z,1.10
2023-04-03T12:28:49.064Z,1.30
2023-04-03T12:29:49.064Z,1.20
2023-04-03T12:30:49.109Z,1.10
2023-04-03T12:31:49.051Z,1.40
2023-04-03T12:32:50.590Z,1.20
2023-04-03T12:33:49.044Z,1.20
2023-04-03T12:34:49.042Z,1.30
2023-04-03T12:35:49.044Z,1.30
2023-04-03T12:36:49.145Z,1.30
2023-04-03T12:37:49.022Z,1.20
2023-04-03T12:38:49.012Z,1.40
2023-04-03T12:39:49.010Z,1.70
2023-04-03T12:40:49.013Z,1.30
2023-04-03T12:41:48.999Z,1.40
2023-04-03T12:42:48.993Z,1.30
2023-04-03T12:43:48.998Z,1.40
2023-04-03T12:44:49.182Z,1.40
2023-04-03T12:45:48.998Z,1.30
2023-04-03T12:46:49.003Z,1.30
2023-04-03T12:47:49.033Z,1.30
2023-04-03T12:48:48.967Z,1.50
2023-04-03T12:49:50.852Z,1.50
2023-04-03T12:50:48.970Z,1.50
2023-04-03T12:51:48.946Z,1.40
2023-04-03T12:52:49.071Z,1.50
2023-04-03T12:53:48.940Z,1.60
2023-04-03T12:54:48.940Z,1.20
2023-04-03T12:55:48.933Z,1.30
2023-04-03T12:56:48.921Z,1.20
2023-04-03T12:57:48.918Z,1.20
2023-04-03T12:58:48.905Z,1.10
2023-04-03T12:59:48.933Z,1.20
2023-04-03T13:00:48.896Z,1.50
2023-04-03T13:01:48.918Z,1.30
2023-04-03T13:02:48.994Z,1.40
2023-04-03T13:03:49.075Z,1.40
2023-04-03T13:04:48.872Z,1.40
2023-04-03T13:05:48.867Z,1.40
2023-04-03T13:06:48.865Z,1.50
2023-04-03T13:07:48.860Z,1.40
2023-04-03T13:08:48.966Z,1.50
2023-04-03T13:09:48.850Z,1.40
2023-04-03T13:10:48.844Z,1.20
2023-04-03T13:11:48.838Z,1.40
2023-04-03T13:12:48.847Z,1.40
2023-04-03T13:13:48.827Z,1.30
2023-04-03T13:14:48.821Z,1.50
2023-04-03T13:15:48.833Z,1.30
2023-04-03T13:16:48.806Z,1.40
2023-04-03T13:17:48.823Z,1.30
2023-04-03T13:18:48.796Z,1.50
2023-04-03T13:19:48.793Z,1.40